Portada
METAR-TAF:

METAR-TAF

Aeropuertos :

Frontone, Italia

latitud: 43-31N, longitud: 012-44E, altitud: 570 m

Observación

El informe se hizo hace 33 minutos, a las 17:55 UTC
Viento 6 kt del oeste
Temperatura 21°C
Humedad 56%
Presión 1007 hPa
Visibilidad 10 km o más
Escasas nubes a una altura de 3200 ft

METAR: LIVF 061755Z 28006KT 9999 FEW032 21/12 Q1007 RMK FEW MON S CLD CIME NC VAL NIL VIS MIN 9999

Hora: 20:28 (18:28 UTC)


TAF: falta

Observaciones y pronósticos meteorológicos de más de 4000 aeropuertos (mensajes METAR y TAF).

Los puntos amarillos y rojos representan las estaciones disponibles.

Ponga el ratón en el punto deseado para ver el nombre de la estación.

Haga clic para ver las observaciones y los pronósticos meteorológicos.

Para cambiar el mapa : haga clic en los botones verdes con una cruz de color negro para hacer un zoom, en el botón verde con un guión para alejar o en las flechas verdes para mapas adyacentes.


METAR-TAF: